Time,TemperatureF,DewpointF,PressureIn,WindDirection,WindDirectionDegrees,WindSpeedMPH,WindSpeedGustMPH,Humidity,HourlyPrecipIn,Conditions,Clouds,dailyrainin,SolarRadiationWatts/m^2,SoftwareType,DateUTC
2013-04-08 00:02:00,84.0,61.0,-100.00,NNE,17,1.0,7.0,46,0.00,,,0.00,1223.000000,,2013-04-08 00:02:00,
2013-04-08 00:11:00,82.0,60.0,-100.00,NW,305,3.0,8.0,47,0.00,,,-99.99,1191.000000,,2013-04-08 00:11:00,
2013-04-08 00:33:00,82.0,60.0,-100.00,NW,305,3.0,8.0,47,0.00,,,-99.99,1191.000000,,2013-04-08 00:33:00,
2013-04-08 00:42:00,82.0,60.0,-100.00,NW,305,3.0,8.0,47,0.00,,,-99.99,1191.000000,,2013-04-08 00:42:00,
2013-04-08 00:52:00,82.0,60.0,-100.00,NW,305,3.0,8.0,47,0.00,,,-99.99,1191.000000,,2013-04-08 00:52:00,
2013-04-08 01:02:00,82.0,60.0,-100.00,NW,305,3.0,8.0,47,0.00,,,-99.99,1191.000000,,2013-04-08 01:02:00,
2013-04-08 01:11:00,75.0,65.0,-100.00,West,259,1.0,9.0,72,0.00,,,0.00,677.000000,,2013-04-08 01:11:00,
2013-04-08 01:44:00,75.0,65.0,-100.00,West,259,1.0,9.0,72,0.00,,,0.00,677.000000,,2013-04-08 01:44:00,
2013-04-08 01:55:00,75.0,65.0,-100.00,West,259,1.0,9.0,72,0.00,,,0.00,677.000000,,2013-04-08 01:55:00,
2013-04-08 02:02:00,75.0,65.0,-100.00,West,259,1.0,9.0,72,0.00,,,0.00,677.000000,,2013-04-08 02:02:00,
2013-04-08 02:11:00,77.0,66.0,-100.00,WNW,297,2.0,6.0,68,0.00,,,0.00,647.000000,,2013-04-08 02:11:00,
2013-04-08 02:48:00,77.0,66.0,-100.00,WNW,297,2.0,6.0,68,0.00,,,0.00,647.000000,,2013-04-08 02:48:00,
2013-04-08 02:53:00,77.0,66.0,-100.00,WNW,297,2.0,6.0,68,0.00,,,0.00,647.000000,,2013-04-08 02:53:00,
2013-04-08 03:05:00,77.0,66.0,-100.00,WNW,297,2.0,6.0,68,0.00,,,0.00,647.000000,,2013-04-08 03:05:00,
2013-04-08 03:11:00,74.0,66.0,-100.00,WNW,295,0.0,6.0,77,0.00,,,0.00,248.000000,,2013-04-08 03:11:00,
2013-04-08 03:55:00,74.0,66.0,-100.00,WNW,295,0.0,6.0,77,0.00,,,0.00,248.000000,,2013-04-08 03:55:00,
2013-04-08 04:02:00,74.0,66.0,-100.00,WNW,295,0.0,6.0,77,0.00,,,0.00,248.000000,,2013-04-08 04:02:00,
2013-04-08 04:11:00,76.0,63.0,-100.00,NNW,343,0.0,3.0,65,0.00,,,0.00,245.000000,,2013-04-08 04:11:00,
2013-04-08 04:34:00,76.0,63.0,-100.00,NNW,343,0.0,3.0,65,0.00,,,0.00,245.000000,,2013-04-08 04:34:00,
2013-04-08 04:44:00,76.0,63.0,-100.00,NNW,343,0.0,3.0,65,0.00,,,0.00,245.000000,,2013-04-08 04:44:00,
2013-04-08 04:52:00,76.0,63.0,-100.00,NNW,343,0.0,3.0,65,0.00,,,0.00,245.000000,,2013-04-08 04:52:00,
2013-04-08 05:02:00,76.0,63.0,-100.00,NNW,343,0.0,3.0,65,0.00,,,0.00,245.000000,,2013-04-08 05:02:00,
2013-04-08 05:11:00,67.0,63.0,-100.00,North,349,0.0,3.0,87,0.00,,,0.00,36.000000,,2013-04-08 05:11:00,
2013-04-08 05:42:00,67.0,63.0,-100.00,North,349,0.0,3.0,87,0.00,,,0.00,36.000000,,2013-04-08 05:42:00,
2013-04-08 05:52:00,67.0,63.0,-100.00,North,349,0.0,3.0,87,0.00,,,0.00,36.000000,,2013-04-08 05:52:00,
2013-04-08 06:02:00,67.0,63.0,-100.00,North,349,0.0,3.0,87,0.00,,,0.00,36.000000,,2013-04-08 06:02:00,
2013-04-08 06:11:00,66.0,65.0,-100.00,North,356,0.0,0.0,97,0.00,,,0.00,0.000000,,2013-04-08 06:11:00,
2013-04-08 06:43:00,66.0,65.0,-100.00,North,356,0.0,0.0,97,0.00,,,0.00,0.000000,,2013-04-08 06:43:00,
2013-04-08 06:52:00,66.0,65.0,-100.00,North,356,0.0,0.0,97,0.00,,,0.00,0.000000,,2013-04-08 06:52:00,
2013-04-08 07:02:00,66.0,65.0,-100.00,North,356,0.0,0.0,97,0.00,,,0.00,0.000000,,2013-04-08 07:02:00,
2013-04-08 08:11:00,62.0,55.0,-100.00,NNE,26,0.0,0.0,77,-99.99,,,0.00,0.000000,,2013-04-08 08:11:00,
2013-04-08 08:43:00,62.0,55.0,-100.00,NNE,26,0.0,0.0,77,-99.99,,,0.00,0.000000,,2013-04-08 08:43:00,
2013-04-08 08:52:00,62.0,55.0,-100.00,NNE,26,0.0,0.0,77,-99.99,,,0.00,0.000000,,2013-04-08 08:52:00,
2013-04-08 09:02:00,62.0,55.0,-100.00,NNE,26,0.0,0.0,77,-99.99,,,0.00,0.000000,,2013-04-08 09:02:00,
2013-04-08 09:11:00,66.0,55.0,-100.00,South,177,0.0,0.0,67,0.00,,,-99.99,0.000000,,2013-04-08 09:11:00,
2013-04-08 09:43:00,66.0,55.0,-100.00,South,177,0.0,0.0,67,0.00,,,-99.99,0.000000,,2013-04-08 09:43:00,
2013-04-08 09:53:00,66.0,55.0,-100.00,South,177,0.0,0.0,67,0.00,,,-99.99,0.000000,,2013-04-08 09:53:00,
2013-04-08 10:03:00,66.0,55.0,-100.00,South,177,0.0,0.0,67,0.00,,,-99.99,0.000000,,2013-04-08 10:03:00,
2013-04-08 10:11:00,65.0,58.0,-100.00,SSE,147,0.0,3.0,78,0.00,,,0.00,0.000000,,2013-04-08 10:11:00,
2013-04-08 10:33:00,65.0,58.0,-100.00,SSE,147,0.0,3.0,78,0.00,,,0.00,0.000000,,2013-04-08 10:33:00,
2013-04-08 10:43:00,65.0,58.0,-100.00,SSE,147,0.0,3.0,78,0.00,,,0.00,0.000000,,2013-04-08 10:43:00,
2013-04-08 10:53:00,65.0,58.0,-100.00,SSE,147,0.0,3.0,78,0.00,,,0.00,0.000000,,2013-04-08 10:53:00,
2013-04-08 11:02:00,65.0,58.0,-100.00,SSE,147,0.0,3.0,78,0.00,,,0.00,0.000000,,2013-04-08 11:02:00,
2013-04-08 11:11:00,64.0,58.0,-100.00,South,191,0.0,0.0,80,0.00,,,0.00,0.000000,,2013-04-08 11:11:00,
2013-04-08 11:32:00,64.0,58.0,-100.00,South,191,0.0,0.0,80,0.00,,,0.00,0.000000,,2013-04-08 11:32:00,
2013-04-08 11:43:00,64.0,58.0,-100.00,South,191,0.0,0.0,80,0.00,,,0.00,0.000000,,2013-04-08 11:43:00,
2013-04-08 11:52:00,64.0,58.0,-100.00,South,191,0.0,0.0,80,0.00,,,0.00,0.000000,,2013-04-08 11:52:00,
2013-04-08 12:02:00,64.0,58.0,-100.00,South,191,0.0,0.0,80,0.00,,,0.00,0.000000,,2013-04-08 12:02:00,
2013-04-08 12:11:00,62.0,60.0,-100.00,South,185,0.0,4.0,94,0.00,,,0.00,0.000000,,2013-04-08 12:11:00,
2013-04-08 12:42:00,62.0,60.0,-100.00,South,185,0.0,4.0,94,0.00,,,0.00,0.000000,,2013-04-08 12:42:00,
2013-04-08 13:02:00,62.0,60.0,-100.00,South,185,0.0,4.0,94,0.00,,,0.00,0.000000,,2013-04-08 13:02:00,
2013-04-08 13:11:00,61.0,60.0,-100.00,NE,46,0.0,3.0,95,0.00,,,0.00,0.000000,,2013-04-08 13:11:00,
2013-04-08 13:43:00,61.0,60.0,-100.00,NE,46,0.0,3.0,95,0.00,,,0.00,0.000000,,2013-04-08 13:43:00,
2013-04-08 13:52:00,61.0,60.0,-100.00,NE,46,0.0,3.0,95,0.00,,,0.00,0.000000,,2013-04-08 13:52:00,
2013-04-08 14:02:00,61.0,60.0,-100.00,NE,46,0.0,3.0,95,0.00,,,0.00,0.000000,,2013-04-08 14:02:00,
2013-04-08 14:11:00,63.0,62.0,-100.00,ENE,65,0.0,0.0,97,0.00,,,0.00,0.000000,,2013-04-08 14:11:00,
2013-04-08 14:33:00,63.0,62.0,-100.00,ENE,65,0.0,0.0,97,0.00,,,0.00,0.000000,,2013-04-08 14:33:00,
2013-04-08 14:43:00,63.0,62.0,-100.00,ENE,65,0.0,0.0,97,0.00,,,0.00,0.000000,,2013-04-08 14:43:00,
2013-04-08 14:52:00,63.0,62.0,-100.00,ENE,65,0.0,0.0,97,0.00,,,0.00,0.000000,,2013-04-08 14:52:00,
2013-04-08 15:02:00,63.0,62.0,-100.00,ENE,65,0.0,0.0,97,0.00,,,0.00,0.000000,,2013-04-08 15:02:00,
2013-04-08 15:11:00,64.0,63.0,-100.00,SSE,159,0.0,0.0,95,0.00,,,0.00,0.000000,,2013-04-08 15:11:00,
2013-04-08 15:35:00,64.0,63.0,-100.00,SSE,159,0.0,0.0,95,0.00,,,0.00,0.000000,,2013-04-08 15:35:00,
2013-04-08 15:43:00,64.0,63.0,-100.00,SSE,159,0.0,0.0,95,0.00,,,0.00,0.000000,,2013-04-08 15:43:00,
2013-04-08 15:53:00,64.0,63.0,-100.00,SSE,159,0.0,0.0,95,0.00,,,0.00,0.000000,,2013-04-08 15:53:00,
2013-04-08 16:03:00,64.0,63.0,-100.00,SSE,159,0.0,0.0,95,0.00,,,0.00,0.000000,,2013-04-08 16:03:00,
2013-04-08 17:11:00,63.0,60.0,-100.00,SSE,150,0.0,0.0,90,-99.99,,,0.00,23.000000,,2013-04-08 17:11:00,
2013-04-08 17:44:00,63.0,60.0,-100.00,SSE,150,0.0,0.0,90,-99.99,,,0.00,23.000000,,2013-04-08 17:44:00,
2013-04-08 17:52:00,63.0,60.0,-100.00,SSE,150,0.0,0.0,90,-99.99,,,0.00,23.000000,,2013-04-08 17:52:00,
2013-04-08 18:02:00,63.0,60.0,-100.00,SSE,150,0.0,0.0,90,-99.99,,,0.00,23.000000,,2013-04-08 18:02:00,
2013-04-08 18:11:00,69.0,61.0,-100.00,WSW,245,0.0,4.0,77,0.00,,,0.00,177.000000,,2013-04-08 18:11:00,
2013-04-08 18:42:00,69.0,61.0,-100.00,WSW,245,0.0,4.0,77,0.00,,,0.00,177.000000,,2013-04-08 18:42:00,
2013-04-08 18:52:00,69.0,61.0,-100.00,WSW,245,0.0,4.0,77,0.00,,,0.00,177.000000,,2013-04-08 18:52:00,
2013-04-08 19:02:00,69.0,61.0,-100.00,WSW,245,0.0,4.0,77,0.00,,,0.00,177.000000,,2013-04-08 19:02:00,
2013-04-08 19:11:00,72.0,67.0,-100.00,WSW,238,0.0,4.0,84,0.00,,,0.00,363.000000,,2013-04-08 19:11:00,
2013-04-08 19:33:00,72.0,67.0,-100.00,WSW,238,0.0,4.0,84,0.00,,,0.00,363.000000,,2013-04-08 19:33:00,
2013-04-08 19:43:00,72.0,67.0,-100.00,WSW,238,0.0,4.0,84,0.00,,,0.00,363.000000,,2013-04-08 19:43:00,
2013-04-08 19:52:00,72.0,67.0,-100.00,WSW,238,0.0,4.0,84,0.00,,,0.00,363.000000,,2013-04-08 19:52:00,
2013-04-08 20:02:00,72.0,67.0,-100.00,WSW,238,0.0,4.0,84,0.00,,,0.00,363.000000,,2013-04-08 20:02:00,
2013-04-08 20:11:00,74.0,65.0,-100.00,WNW,293,0.0,5.0,73,0.00,,,0.00,561.000000,,2013-04-08 20:11:00,
2013-04-08 20:43:00,74.0,65.0,-100.00,WNW,293,0.0,5.0,73,0.00,,,0.00,561.000000,,2013-04-08 20:43:00,
2013-04-08 20:52:00,74.0,65.0,-100.00,WNW,293,0.0,5.0,73,0.00,,,0.00,561.000000,,2013-04-08 20:52:00,
2013-04-08 21:02:00,74.0,65.0,-100.00,WNW,293,0.0,5.0,73,0.00,,,0.00,561.000000,,2013-04-08 21:02:00,
2013-04-08 21:11:00,75.0,64.0,-100.00,WSW,253,1.0,7.0,68,0.00,,,0.00,859.000000,,2013-04-08 21:11:00,
2013-04-08 21:43:00,75.0,64.0,-100.00,WSW,253,1.0,7.0,68,0.00,,,0.00,859.000000,,2013-04-08 21:43:00,
2013-04-08 21:53:00,75.0,64.0,-100.00,WSW,253,1.0,7.0,68,0.00,,,0.00,859.000000,,2013-04-08 21:53:00,
2013-04-08 22:02:00,75.0,64.0,-100.00,WSW,253,1.0,7.0,68,0.00,,,0.00,859.000000,,2013-04-08 22:02:00,
2013-04-08 23:11:00,77.0,64.0,-100.00,NW,314,2.0,7.0,64,-99.99,,,0.00,1208.000000,,2013-04-08 23:11:00,
2013-04-08 23:32:00,77.0,64.0,-100.00,NW,314,2.0,7.0,64,-99.99,,,0.00,1208.000000,,2013-04-08 23:32:00,
2013-04-08 23:43:00,77.0,64.0,-100.00,NW,314,2.0,7.0,64,-99.99,,,0.00,1208.000000,,2013-04-08 23:43:00,
2013-04-08 23:52:00,77.0,64.0,-100.00,NW,314,2.0,7.0,64,-99.99,,,0.00,1208.000000,,2013-04-08 23:52:00,